<?xml version="1.0" encoding="UTF-8" standalone="no" ?>
<gpx xmlns="http://www.topografix.com/GPX/1/1" xmlns:xsi="http://www.w3.org/2001/XMLSchema-instance" xsi:schemaLocation="http://www.topografix.com/GPX/1/1 http://www.topografix.com/GPX/1/1/gpx.xsd" version="1.1" creator="VisuGPX - https://www.visugpx.com">
  <metadata>
    <name>MAXI FREP J4APRESMIDI/31/506</name>
  </metadata>
  <trk>
    <name><![CDATA[12813527-maxi frep 4 après midi 30]]></name>
    <extensions>
      <line xmlns="http://www.topografix.com/GPX/gpx_style/0/2">
        <color>0000FF</color>
        <width>4</width>
      </line>
    </extensions>
    <trkseg>
      <trkpt lat="44.47708" lon="1.54222">
        <ele>240</ele>
        <time>2021-04-08T10:07:20Z</time>
      </trkpt>
      <trkpt lat="44.4764" lon="1.53998">
        <ele>245</ele>
        <time>2021-04-08T10:08:01Z</time>
      </trkpt>
      <trkpt lat="44.47602" lon="1.53796">
        <ele>245</ele>
        <time>2021-04-08T10:08:35Z</time>
      </trkpt>
      <trkpt lat="44.47662" lon="1.53643">
        <ele>242</ele>
        <time>2021-04-08T10:09:04Z</time>
      </trkpt>
      <trkpt lat="44.47664" lon="1.53531">
        <ele>236</ele>
        <time>2021-04-08T10:09:23Z</time>
      </trkpt>
      <trkpt lat="44.47533" lon="1.5338">
        <ele>220</ele>
        <time>2021-04-08T10:10:03Z</time>
      </trkpt>
      <trkpt lat="44.47511" lon="1.53204">
        <ele>208</ele>
        <time>2021-04-08T10:10:33Z</time>
      </trkpt>
      <trkpt lat="44.47324" lon="1.53112">
        <ele>192</ele>
        <time>2021-04-08T10:11:19Z</time>
      </trkpt>
      <trkpt lat="44.47038" lon="1.52959">
        <ele>161</ele>
        <time>2021-04-08T10:12:30Z</time>
      </trkpt>
      <trkpt lat="44.46989" lon="1.52855">
        <ele>166</ele>
        <time>2021-04-08T10:12:51Z</time>
      </trkpt>
      <trkpt lat="44.46899" lon="1.52758">
        <ele>154</ele>
        <time>2021-04-08T10:13:18Z</time>
      </trkpt>
      <trkpt lat="44.46821" lon="1.52699">
        <ele>138</ele>
        <time>2021-04-08T10:13:38Z</time>
      </trkpt>
      <trkpt lat="44.46792" lon="1.52576">
        <ele>132</ele>
        <time>2021-04-08T10:14:00Z</time>
      </trkpt>
      <trkpt lat="44.47023" lon="1.52548">
        <ele>137</ele>
        <time>2021-04-08T10:14:54Z</time>
      </trkpt>
      <trkpt lat="44.47491" lon="1.52217">
        <ele>140</ele>
        <time>2021-04-08T10:16:56Z</time>
      </trkpt>
      <trkpt lat="44.47575" lon="1.5215">
        <ele>138</ele>
        <time>2021-04-08T10:17:19Z</time>
      </trkpt>
      <trkpt lat="44.47631" lon="1.52069">
        <ele>137</ele>
        <time>2021-04-08T10:17:38Z</time>
      </trkpt>
      <trkpt lat="44.47853" lon="1.52125">
        <ele>146</ele>
        <time>2021-04-08T10:18:30Z</time>
      </trkpt>
      <trkpt lat="44.48059" lon="1.52048">
        <ele>150</ele>
        <time>2021-04-08T10:19:20Z</time>
      </trkpt>
      <trkpt lat="44.48137" lon="1.51931">
        <ele>159</ele>
        <time>2021-04-08T10:19:47Z</time>
      </trkpt>
      <trkpt lat="44.48245" lon="1.51813">
        <ele>149</ele>
        <time>2021-04-08T10:20:19Z</time>
      </trkpt>
      <trkpt lat="44.48256" lon="1.51722">
        <ele>155</ele>
        <time>2021-04-08T10:20:34Z</time>
      </trkpt>
      <trkpt lat="44.48356" lon="1.51574">
        <ele>157</ele>
        <time>2021-04-08T10:21:08Z</time>
      </trkpt>
      <trkpt lat="44.48483" lon="1.51392">
        <ele>162</ele>
        <time>2021-04-08T10:21:51Z</time>
      </trkpt>
      <trkpt lat="44.48454" lon="1.51122">
        <ele>193</ele>
        <time>2021-04-08T10:22:36Z</time>
      </trkpt>
      <trkpt lat="44.48328" lon="1.50912">
        <ele>213</ele>
        <time>2021-04-08T10:23:22Z</time>
      </trkpt>
      <trkpt lat="44.48111" lon="1.50727">
        <ele>263</ele>
        <time>2021-04-08T10:24:21Z</time>
      </trkpt>
      <trkpt lat="44.48111" lon="1.5086">
        <ele>269</ele>
        <time>2021-04-08T10:24:43Z</time>
      </trkpt>
      <trkpt lat="44.47997" lon="1.50809">
        <ele>282</ele>
        <time>2021-04-08T10:25:11Z</time>
      </trkpt>
      <trkpt lat="44.47912" lon="1.50998">
        <ele>285</ele>
        <time>2021-04-08T10:25:49Z</time>
      </trkpt>
      <trkpt lat="44.47835" lon="1.50998">
        <ele>282</ele>
        <time>2021-04-08T10:26:07Z</time>
      </trkpt>
      <trkpt lat="44.47801" lon="1.51083">
        <ele>283</ele>
        <time>2021-04-08T10:26:23Z</time>
      </trkpt>
      <trkpt lat="44.47639" lon="1.51118">
        <ele>272</ele>
        <time>2021-04-08T10:27:01Z</time>
      </trkpt>
      <trkpt lat="44.47559" lon="1.51075">
        <ele>267</ele>
        <time>2021-04-08T10:27:21Z</time>
      </trkpt>
      <trkpt lat="44.4734" lon="1.51288">
        <ele>261</ele>
        <time>2021-04-08T10:28:23Z</time>
      </trkpt>
      <trkpt lat="44.47186" lon="1.5127">
        <ele>263</ele>
        <time>2021-04-08T10:28:59Z</time>
      </trkpt>
      <trkpt lat="44.47067" lon="1.51155">
        <ele>255</ele>
        <time>2021-04-08T10:29:33Z</time>
      </trkpt>
      <trkpt lat="44.47083" lon="1.51054">
        <ele>251</ele>
        <time>2021-04-08T10:29:50Z</time>
      </trkpt>
      <trkpt lat="44.46987" lon="1.50982">
        <ele>229</ele>
        <time>2021-04-08T10:30:16Z</time>
      </trkpt>
      <trkpt lat="44.46951" lon="1.50888">
        <ele>219</ele>
        <time>2021-04-08T10:30:34Z</time>
      </trkpt>
      <trkpt lat="44.46812" lon="1.50765">
        <ele>193</ele>
        <time>2021-04-08T10:31:12Z</time>
      </trkpt>
      <trkpt lat="44.46591" lon="1.50578">
        <ele>163</ele>
        <time>2021-04-08T10:32:12Z</time>
      </trkpt>
      <trkpt lat="44.46457" lon="1.5017">
        <ele>158</ele>
        <time>2021-04-08T10:33:27Z</time>
      </trkpt>
      <trkpt lat="44.46403" lon="1.50076">
        <ele>157</ele>
        <time>2021-04-08T10:33:47Z</time>
      </trkpt>
      <trkpt lat="44.46408" lon="1.49885">
        <ele>155</ele>
        <time>2021-04-08T10:34:19Z</time>
      </trkpt>
      <trkpt lat="44.46457" lon="1.49437">
        <ele>149</ele>
        <time>2021-04-08T10:35:35Z</time>
      </trkpt>
      <trkpt lat="44.46606" lon="1.49047">
        <ele>135</ele>
        <time>2021-04-08T10:36:48Z</time>
      </trkpt>
      <trkpt lat="44.46694" lon="1.48715">
        <ele>129</ele>
        <time>2021-04-08T10:37:47Z</time>
      </trkpt>
      <trkpt lat="44.46722" lon="1.48679">
        <ele>128</ele>
        <time>2021-04-08T10:37:56Z</time>
      </trkpt>
      <trkpt lat="44.46779" lon="1.48784">
        <ele>134</ele>
        <time>2021-04-08T10:38:18Z</time>
      </trkpt>
      <trkpt lat="44.46835" lon="1.48899">
        <ele>138</ele>
        <time>2021-04-08T10:38:41Z</time>
      </trkpt>
      <trkpt lat="44.46897" lon="1.48899">
        <ele>141</ele>
        <time>2021-04-08T10:38:56Z</time>
      </trkpt>
      <trkpt lat="44.46936" lon="1.48816">
        <ele>151</ele>
        <time>2021-04-08T10:39:12Z</time>
      </trkpt>
      <trkpt lat="44.46991" lon="1.48788">
        <ele>160</ele>
        <time>2021-04-08T10:39:26Z</time>
      </trkpt>
      <trkpt lat="44.47042" lon="1.48744">
        <ele>171</ele>
        <time>2021-04-08T10:39:40Z</time>
      </trkpt>
      <trkpt lat="44.47004" lon="1.4873">
        <ele>171</ele>
        <time>2021-04-08T10:39:49Z</time>
      </trkpt>
      <trkpt lat="44.47044" lon="1.48634">
        <ele>187</ele>
        <time>2021-04-08T10:40:08Z</time>
      </trkpt>
      <trkpt lat="44.47132" lon="1.48473">
        <ele>206</ele>
        <time>2021-04-08T10:40:42Z</time>
      </trkpt>
      <trkpt lat="44.472" lon="1.48316">
        <ele>218</ele>
        <time>2021-04-08T10:41:12Z</time>
      </trkpt>
      <trkpt lat="44.47229" lon="1.48292">
        <ele>226</ele>
        <time>2021-04-08T10:41:20Z</time>
      </trkpt>
      <trkpt lat="44.47271" lon="1.48334">
        <ele>239</ele>
        <time>2021-04-08T10:41:32Z</time>
      </trkpt>
      <trkpt lat="44.47285" lon="1.48425">
        <ele>239</ele>
        <time>2021-04-08T10:41:48Z</time>
      </trkpt>
      <trkpt lat="44.47327" lon="1.48399">
        <ele>249</ele>
        <time>2021-04-08T10:41:58Z</time>
      </trkpt>
      <trkpt lat="44.47357" lon="1.4836">
        <ele>252</ele>
        <time>2021-04-08T10:42:08Z</time>
      </trkpt>
      <trkpt lat="44.47379" lon="1.48288">
        <ele>256</ele>
        <time>2021-04-08T10:42:21Z</time>
      </trkpt>
      <trkpt lat="44.47464" lon="1.48124">
        <ele>259</ele>
        <time>2021-04-08T10:42:55Z</time>
      </trkpt>
      <trkpt lat="44.47543" lon="1.48105">
        <ele>254</ele>
        <time>2021-04-08T10:43:14Z</time>
      </trkpt>
      <trkpt lat="44.47583" lon="1.48108">
        <ele>249</ele>
        <time>2021-04-08T10:43:23Z</time>
      </trkpt>
      <trkpt lat="44.47679" lon="1.48158">
        <ele>251</ele>
        <time>2021-04-08T10:43:47Z</time>
      </trkpt>
      <trkpt lat="44.4777" lon="1.48166">
        <ele>256</ele>
        <time>2021-04-08T10:44:08Z</time>
      </trkpt>
      <trkpt lat="44.47779" lon="1.48123">
        <ele>255</ele>
        <time>2021-04-08T10:44:16Z</time>
      </trkpt>
      <trkpt lat="44.47667" lon="1.4807">
        <ele>235</ele>
        <time>2021-04-08T10:44:43Z</time>
      </trkpt>
      <trkpt lat="44.47585" lon="1.47993">
        <ele>231</ele>
        <time>2021-04-08T10:45:06Z</time>
      </trkpt>
      <trkpt lat="44.47588" lon="1.47937">
        <ele>228</ele>
        <time>2021-04-08T10:45:16Z</time>
      </trkpt>
      <trkpt lat="44.47669" lon="1.47856">
        <ele>204</ele>
        <time>2021-04-08T10:45:39Z</time>
      </trkpt>
      <trkpt lat="44.47651" lon="1.47932">
        <ele>208</ele>
        <time>2021-04-08T10:45:52Z</time>
      </trkpt>
      <trkpt lat="44.4788" lon="1.47615">
        <ele>154</ele>
        <time>2021-04-08T10:47:07Z</time>
      </trkpt>
      <trkpt lat="44.47778" lon="1.47363">
        <ele>157</ele>
        <time>2021-04-08T10:47:56Z</time>
      </trkpt>
      <trkpt lat="44.4783" lon="1.47016">
        <ele>127</ele>
        <time>2021-04-08T10:48:55Z</time>
      </trkpt>
      <trkpt lat="44.4784" lon="1.46972">
        <ele>125</ele>
        <time>2021-04-08T10:49:02Z</time>
      </trkpt>
      <trkpt lat="44.47883" lon="1.46967">
        <ele>126</ele>
        <time>2021-04-08T10:49:12Z</time>
      </trkpt>
      <trkpt lat="44.47894" lon="1.46885">
        <ele>125</ele>
        <time>2021-04-08T10:49:26Z</time>
      </trkpt>
      <trkpt lat="44.47952" lon="1.46835">
        <ele>132</ele>
        <time>2021-04-08T10:49:42Z</time>
      </trkpt>
      <trkpt lat="44.47662" lon="1.46767">
        <ele>129</ele>
        <time>2021-04-08T10:50:51Z</time>
      </trkpt>
      <trkpt lat="44.47653" lon="1.4675">
        <ele>130</ele>
        <time>2021-04-08T10:50:54Z</time>
      </trkpt>
      <trkpt lat="44.47629" lon="1.46744">
        <ele>132</ele>
        <time>2021-04-08T10:51:00Z</time>
      </trkpt>
      <trkpt lat="44.4755" lon="1.46743">
        <ele>130</ele>
        <time>2021-04-08T10:51:19Z</time>
      </trkpt>
      <trkpt lat="44.47561" lon="1.46718">
        <ele>134</ele>
        <time>2021-04-08T10:51:23Z</time>
      </trkpt>
      <trkpt lat="44.47572" lon="1.46717">
        <ele>135</ele>
        <time>2021-04-08T10:51:26Z</time>
      </trkpt>
      <trkpt lat="44.47588" lon="1.46618">
        <ele>150</ele>
        <time>2021-04-08T10:51:43Z</time>
      </trkpt>
      <trkpt lat="44.47563" lon="1.46562">
        <ele>151</ele>
        <time>2021-04-08T10:51:54Z</time>
      </trkpt>
      <trkpt lat="44.47603" lon="1.46357">
        <ele>181</ele>
        <time>2021-04-08T10:52:29Z</time>
      </trkpt>
      <trkpt lat="44.47601" lon="1.46189">
        <ele>199</ele>
        <time>2021-04-08T10:52:57Z</time>
      </trkpt>
      <trkpt lat="44.47577" lon="1.45859">
        <ele>236</ele>
        <time>2021-04-08T10:53:53Z</time>
      </trkpt>
      <trkpt lat="44.47595" lon="1.45802">
        <ele>242</ele>
        <time>2021-04-08T10:54:03Z</time>
      </trkpt>
      <trkpt lat="44.47611" lon="1.45753">
        <ele>243</ele>
        <time>2021-04-08T10:54:12Z</time>
      </trkpt>
      <trkpt lat="44.47636" lon="1.45657">
        <ele>231</ele>
        <time>2021-04-08T10:54:29Z</time>
      </trkpt>
      <trkpt lat="44.47739" lon="1.4538">
        <ele>187</ele>
        <time>2021-04-08T10:55:21Z</time>
      </trkpt>
      <trkpt lat="44.47562" lon="1.45247">
        <ele>168</ele>
        <time>2021-04-08T10:56:08Z</time>
      </trkpt>
      <trkpt lat="44.47348" lon="1.45202">
        <ele>157</ele>
        <time>2021-04-08T10:56:59Z</time>
      </trkpt>
      <trkpt lat="44.47253" lon="1.45054">
        <ele>147</ele>
        <time>2021-04-08T10:57:32Z</time>
      </trkpt>
      <trkpt lat="44.47189" lon="1.45075">
        <ele>133</ele>
        <time>2021-04-08T10:57:47Z</time>
      </trkpt>
      <trkpt lat="44.47177" lon="1.45185">
        <ele>125</ele>
        <time>2021-04-08T10:58:06Z</time>
      </trkpt>
      <trkpt lat="44.4705" lon="1.45292">
        <ele>117</ele>
        <time>2021-04-08T10:58:40Z</time>
      </trkpt>
      <trkpt lat="44.46889" lon="1.44957">
        <ele>119</ele>
        <time>2021-04-08T10:59:48Z</time>
      </trkpt>
      <trkpt lat="44.46751" lon="1.44605">
        <ele>118</ele>
        <time>2021-04-08T11:00:54Z</time>
      </trkpt>
      <trkpt lat="44.4672" lon="1.44588">
        <ele>117</ele>
        <time>2021-04-08T11:01:02Z</time>
      </trkpt>
      <trkpt lat="44.4648" lon="1.43977">
        <ele>140</ele>
        <time>2021-04-08T11:02:58Z</time>
      </trkpt>
      <trkpt lat="44.45524" lon="1.43912">
        <ele>136</ele>
        <time>2021-04-08T11:06:42Z</time>
      </trkpt>
      <trkpt lat="44.45226" lon="1.44112">
        <ele>136</ele>
        <time>2021-04-08T11:07:59Z</time>
      </trkpt>
      <trkpt lat="44.45063" lon="1.44262">
        <ele>127</ele>
        <time>2021-04-08T11:08:45Z</time>
      </trkpt>
      <trkpt lat="44.44869" lon="1.44348">
        <ele>123</ele>
        <time>2021-04-08T11:09:32Z</time>
      </trkpt>
      <trkpt lat="44.44912" lon="1.44502">
        <ele>117</ele>
        <time>2021-04-08T11:10:00Z</time>
      </trkpt>
      <trkpt lat="44.45061" lon="1.44437">
        <ele>118</ele>
        <time>2021-04-08T11:10:36Z</time>
      </trkpt>
      <trkpt lat="44.45259" lon="1.4434">
        <ele>117</ele>
        <time>2021-04-08T11:11:25Z</time>
      </trkpt>
      <trkpt lat="44.45428" lon="1.44318">
        <ele>118</ele>
        <time>2021-04-08T11:12:05Z</time>
      </trkpt>
      <trkpt lat="44.45535" lon="1.44354">
        <ele>118</ele>
        <time>2021-04-08T11:12:31Z</time>
      </trkpt>
      <trkpt lat="44.45658" lon="1.44325">
        <ele>118</ele>
        <time>2021-04-08T11:13:00Z</time>
      </trkpt>
      <trkpt lat="44.4594" lon="1.44195">
        <ele>119</ele>
        <time>2021-04-08T11:14:09Z</time>
      </trkpt>
      <trkpt lat="44.46302" lon="1.44143">
        <ele>119</ele>
        <time>2021-04-08T11:15:34Z</time>
      </trkpt>
      <trkpt lat="44.46388" lon="1.44154">
        <ele>118</ele>
        <time>2021-04-08T11:15:54Z</time>
      </trkpt>
      <trkpt lat="44.46539" lon="1.4447">
        <ele>118</ele>
        <time>2021-04-08T11:16:58Z</time>
      </trkpt>
      <trkpt lat="44.46643" lon="1.44737">
        <ele>119</ele>
        <time>2021-04-08T11:17:48Z</time>
      </trkpt>
      <trkpt lat="44.46867" lon="1.45305">
        <ele>130</ele>
        <time>2021-04-08T11:19:36Z</time>
      </trkpt>
      <trkpt lat="44.46978" lon="1.45726">
        <ele>126</ele>
        <time>2021-04-08T11:20:51Z</time>
      </trkpt>
      <trkpt lat="44.47128" lon="1.46254">
        <ele>118</ele>
        <time>2021-04-08T11:22:26Z</time>
      </trkpt>
      <trkpt lat="44.472" lon="1.46381">
        <ele>118</ele>
        <time>2021-04-08T11:22:53Z</time>
      </trkpt>
      <trkpt lat="44.47331" lon="1.46579">
        <ele>118</ele>
        <time>2021-04-08T11:23:38Z</time>
      </trkpt>
      <trkpt lat="44.47404" lon="1.46895">
        <ele>120</ele>
        <time>2021-04-08T11:24:33Z</time>
      </trkpt>
      <trkpt lat="44.47412" lon="1.47072">
        <ele>122</ele>
        <time>2021-04-08T11:25:03Z</time>
      </trkpt>
      <trkpt lat="44.47304" lon="1.47304">
        <ele>120</ele>
        <time>2021-04-08T11:25:49Z</time>
      </trkpt>
      <trkpt lat="44.4712" lon="1.47483">
        <ele>120</ele>
        <time>2021-04-08T11:26:41Z</time>
      </trkpt>
      <trkpt lat="44.4687" lon="1.47694">
        <ele>121</ele>
        <time>2021-04-08T11:27:49Z</time>
      </trkpt>
      <trkpt lat="44.46777" lon="1.47842">
        <ele>121</ele>
        <time>2021-04-08T11:28:22Z</time>
      </trkpt>
      <trkpt lat="44.46573" lon="1.48106">
        <ele>119</ele>
        <time>2021-04-08T11:29:27Z</time>
      </trkpt>
      <trkpt lat="44.46462" lon="1.48261">
        <ele>120</ele>
        <time>2021-04-08T11:30:04Z</time>
      </trkpt>
      <trkpt lat="44.46213" lon="1.48602">
        <ele>118</ele>
        <time>2021-04-08T11:31:25Z</time>
      </trkpt>
      <trkpt lat="44.461" lon="1.48779">
        <ele>119</ele>
        <time>2021-04-08T11:32:05Z</time>
      </trkpt>
      <trkpt lat="44.45893" lon="1.4891">
        <ele>124</ele>
        <time>2021-04-08T11:32:58Z</time>
      </trkpt>
      <trkpt lat="44.45742" lon="1.49091">
        <ele>132</ele>
        <time>2021-04-08T11:33:44Z</time>
      </trkpt>
      <trkpt lat="44.45654" lon="1.49268">
        <ele>132</ele>
        <time>2021-04-08T11:34:20Z</time>
      </trkpt>
      <trkpt lat="44.45649" lon="1.49428">
        <ele>133</ele>
        <time>2021-04-08T11:34:47Z</time>
      </trkpt>
      <trkpt lat="44.45773" lon="1.50024">
        <ele>120</ele>
        <time>2021-04-08T11:36:30Z</time>
      </trkpt>
      <trkpt lat="44.45898" lon="1.50226">
        <ele>121</ele>
        <time>2021-04-08T11:37:15Z</time>
      </trkpt>
      <trkpt lat="44.4592" lon="1.50404">
        <ele>124</ele>
        <time>2021-04-08T11:37:45Z</time>
      </trkpt>
      <trkpt lat="44.45938" lon="1.50646">
        <ele>124</ele>
        <time>2021-04-08T11:38:25Z</time>
      </trkpt>
      <trkpt lat="44.45965" lon="1.50941">
        <ele>122</ele>
        <time>2021-04-08T11:39:15Z</time>
      </trkpt>
      <trkpt lat="44.46052" lon="1.51622">
        <ele>120</ele>
        <time>2021-04-08T11:41:10Z</time>
      </trkpt>
      <trkpt lat="44.46071" lon="1.51717">
        <ele>121</ele>
        <time>2021-04-08T11:41:27Z</time>
      </trkpt>
      <trkpt lat="44.46052" lon="1.51806">
        <ele>124</ele>
        <time>2021-04-08T11:41:42Z</time>
      </trkpt>
      <trkpt lat="44.46071" lon="1.52043">
        <ele>133</ele>
        <time>2021-04-08T11:42:22Z</time>
      </trkpt>
      <trkpt lat="44.4606" lon="1.52125">
        <ele>138</ele>
        <time>2021-04-08T11:42:36Z</time>
      </trkpt>
      <trkpt lat="44.46078" lon="1.52242">
        <ele>136</ele>
        <time>2021-04-08T11:42:56Z</time>
      </trkpt>
      <trkpt lat="44.46369" lon="1.52635">
        <ele>133</ele>
        <time>2021-04-08T11:44:30Z</time>
      </trkpt>
      <trkpt lat="44.46608" lon="1.52903">
        <ele>130</ele>
        <time>2021-04-08T11:45:42Z</time>
      </trkpt>
      <trkpt lat="44.46766" lon="1.53258">
        <ele>130</ele>
        <time>2021-04-08T11:46:51Z</time>
      </trkpt>
      <trkpt lat="44.46766" lon="1.5347">
        <ele>133</ele>
        <time>2021-04-08T11:47:27Z</time>
      </trkpt>
      <trkpt lat="44.46701" lon="1.53722">
        <ele>141</ele>
        <time>2021-04-08T11:48:11Z</time>
      </trkpt>
      <trkpt lat="44.46701" lon="1.53995">
        <ele>134</ele>
        <time>2021-04-08T11:48:57Z</time>
      </trkpt>
      <trkpt lat="44.46754" lon="1.54345">
        <ele>128</ele>
        <time>2021-04-08T11:49:57Z</time>
      </trkpt>
      <trkpt lat="44.4679" lon="1.54365">
        <ele>130</ele>
        <time>2021-04-08T11:50:06Z</time>
      </trkpt>
      <trkpt lat="44.46799" lon="1.54483">
        <ele>132</ele>
        <time>2021-04-08T11:50:25Z</time>
      </trkpt>
      <trkpt lat="44.46819" lon="1.54592">
        <ele>139</ele>
        <time>2021-04-08T11:50:44Z</time>
      </trkpt>
      <trkpt lat="44.47118" lon="1.54613">
        <ele>175</ele>
        <time>2021-04-08T11:51:54Z</time>
      </trkpt>
      <trkpt lat="44.47229" lon="1.54572">
        <ele>184</ele>
        <time>2021-04-08T11:52:21Z</time>
      </trkpt>
      <trkpt lat="44.47345" lon="1.54569">
        <ele>194</ele>
        <time>2021-04-08T11:52:48Z</time>
      </trkpt>
      <trkpt lat="44.4734" lon="1.54483">
        <ele>200</ele>
        <time>2021-04-08T11:53:02Z</time>
      </trkpt>
      <trkpt lat="44.47529" lon="1.54202">
        <ele>235</ele>
        <time>2021-04-08T11:54:07Z</time>
      </trkpt>
      <trkpt lat="44.4767" lon="1.54077">
        <ele>248</ele>
        <time>2021-04-08T11:54:46Z</time>
      </trkpt>
      <trkpt lat="44.47695" lon="1.54179">
        <ele>243</ele>
        <time>2021-04-08T11:55:04Z</time>
      </trkpt>
    </trkseg>
  </trk>
</gpx>